createdAt,value
2022-11-27T00:02:29.707Z,47.20
2022-11-27T00:08:51.002Z,46.70
2022-11-27T00:11:22.845Z,47.72
2022-11-27T00:19:27.710Z,45.50
2022-11-27T00:21:54.267Z,45.42
2022-11-27T01:16:48.048Z,35.22
2022-11-27T01:19:15.340Z,33.15
2022-11-27T01:21:42.269Z,33.63
2022-11-27T01:24:12.097Z,32.15
2022-11-27T01:26:38.702Z,32.45
2022-11-27T01:29:48.686Z,33.15
2022-11-27T01:33:27.817Z,31.65
2022-11-27T01:36:00.523Z,30.35
2022-11-27T01:38:28.947Z,30.23
2022-11-27T01:41:13.483Z,29.87
2022-11-27T01:43:49.562Z,41.83
2022-11-27T01:52:15.339Z,30.98
2022-11-27T02:00:08.303Z,31.77
2022-11-27T02:49:02.198Z,28.02
2022-11-27T02:51:37.310Z,29.35
2022-11-27T02:56:40.887Z,29.65
2022-11-27T02:59:11.514Z,28.90
2022-11-27T03:01:50.809Z,29.12
2022-11-27T04:22:02.578Z,27.85
2022-11-27T04:24:29.556Z,25.83
2022-11-27T04:27:30.079Z,26.52
2022-11-27T04:29:56.685Z,25.48
2022-11-27T05:36:33.151Z,22.45
2022-11-27T05:39:01.616Z,23.48
2022-11-27T05:45:26.278Z,23.48
2022-11-27T05:47:57.434Z,23.42
2022-11-27T05:50:24.399Z,22.40
2022-11-27T05:52:51.017Z,24.73
2022-11-27T05:55:17.575Z,23.55
2022-11-27T05:57:44.147Z,25.05
2022-11-27T06:00:44.535Z,25.98
2022-11-27T06:03:11.152Z,23.92
2022-11-27T06:05:42.822Z,24.83
2022-11-27T06:08:09.382Z,23.90
2022-11-27T06:14:59.209Z,25.12
2022-11-27T06:17:25.866Z,26.25
2022-11-27T06:19:52.442Z,26.87
2022-11-27T06:22:18.961Z,25.65
2022-11-27T06:24:45.571Z,26.77
2022-11-27T06:27:14.423Z,26.92
2022-11-27T06:30:12.471Z,26.17
2022-11-27T06:32:39.052Z,24.85
2022-11-27T06:35:06.198Z,25.25
2022-11-27T06:37:32.940Z,26.27
2022-11-27T06:44:29.231Z,27.52
2022-11-27T06:46:55.834Z,25.92
2022-11-27T06:49:22.407Z,25.30
2022-11-27T06:51:49.770Z,26.12
2022-11-27T06:54:16.754Z,24.98
2022-11-27T06:56:43.441Z,26.95
2022-11-27T07:21:21.793Z,27.77
2022-11-27T07:23:48.345Z,28.48
2022-11-27T07:26:20.120Z,30.05
2022-11-27T07:28:47.457Z,29.85
2022-11-27T07:31:16.860Z,29.55
2022-11-27T07:33:43.801Z,28.87
2022-11-27T07:36:21.990Z,29.73
2022-11-27T07:38:49.307Z,29.17
2022-11-27T07:41:16.356Z,29.35
2022-11-27T07:43:44.137Z,30.15
2022-11-27T07:46:13.535Z,29.92
2022-11-27T07:48:40.175Z,30.50
2022-11-27T07:51:08.231Z,29.20
2022-11-27T07:53:39.643Z,30.62
2022-11-27T07:56:12.051Z,31.77
2022-11-27T07:58:38.627Z,30.15
2022-11-27T08:01:14.246Z,29.75
2022-11-27T08:03:44.163Z,30.15
2022-11-27T08:06:29.058Z,32.58
2022-11-27T08:08:58.720Z,33.30
2022-11-27T08:11:29.641Z,30.80
2022-11-27T08:13:58.759Z,32.20
2022-11-27T08:16:25.868Z,31.80
2022-11-27T08:18:52.826Z,32.72
2022-11-27T08:21:20.003Z,32.28
2022-11-27T08:23:46.635Z,31.77
2022-11-27T08:26:14.138Z,34.05
2022-11-27T08:28:41.450Z,33.70
2022-11-27T08:31:10.868Z,33.03
2022-11-27T08:33:37.943Z,33.25
2022-11-27T08:36:06.024Z,32.33
2022-11-27T08:38:33.962Z,31.98
2022-11-27T08:41:02.800Z,35.00
2022-11-27T08:43:30.654Z,34.38
2022-11-27T08:45:57.776Z,33.63
2022-11-27T08:48:24.841Z,33.90
2022-11-27T08:50:53.502Z,32.83
2022-11-27T08:53:20.085Z,31.58
2022-11-27T08:55:47.416Z,31.60
2022-11-27T08:58:14.049Z,35.17
2022-11-27T09:00:40.698Z,31.50
2022-11-27T09:03:07.347Z,31.75
2022-11-27T09:05:34.031Z,30.30
2022-11-27T09:08:02.517Z,30.23
2022-11-27T09:10:29.272Z,29.45
2022-11-27T09:12:56.484Z,29.37
2022-11-27T09:15:23.239Z,26.87
2022-11-27T09:17:50.089Z,25.80
2022-11-27T09:20:16.719Z,25.80
2022-11-27T09:22:43.525Z,27.77
2022-11-27T09:25:10.199Z,26.87
2022-11-27T09:27:38.039Z,19.60
2022-11-27T09:30:07.485Z,20.25
2022-11-27T09:32:34.388Z,20.20
2022-11-27T09:35:00.999Z,19.98
2022-11-27T09:37:27.705Z,19.17
2022-11-27T09:39:55.215Z,20.37
2022-11-27T09:43:09.778Z,19.48
2022-11-27T09:45:45.178Z,20.30
2022-11-27T09:48:19.001Z,19.02
2022-11-27T09:50:51.805Z,19.92
2022-11-27T09:53:32.857Z,21.25
2022-11-27T09:56:04.329Z,20.67
2022-11-27T09:58:42.499Z,23.38
2022-11-27T10:01:30.980Z,21.10
2022-11-27T10:04:03.008Z,21.80
2022-11-27T10:06:58.652Z,21.45
2022-11-27T10:09:41.557Z,25.50
2022-11-27T10:12:13.755Z,26.65
2022-11-27T10:15:03.571Z,27.55
2022-11-27T10:17:42.644Z,28.45
2022-11-27T10:20:35.063Z,30.27
2022-11-27T10:23:18.375Z,27.70
2022-11-27T10:28:42.481Z,28.10
2022-11-27T10:31:46.760Z,30.15
2022-11-27T10:34:34.613Z,29.37
2022-11-27T10:37:05.938Z,29.60
2022-11-27T10:39:43.687Z,28.95
2022-11-27T10:42:30.817Z,28.73
2022-11-27T10:45:04.529Z,30.37
2022-11-27T10:47:33.923Z,48.63
2022-11-27T10:50:01.130Z,33.45
2022-11-27T10:52:28.048Z,29.17
2022-11-27T10:55:01.637Z,30.35
2022-11-27T10:57:47.894Z,30.98
2022-11-27T11:00:23.477Z,30.60
2022-11-27T11:03:00.366Z,29.83
2022-11-27T11:05:41.449Z,32.63
2022-11-27T11:08:19.146Z,30.10
2022-11-27T11:10:51.660Z,32.08
2022-11-27T11:13:33.178Z,34.22
2022-11-27T11:16:04.002Z,79.90
2022-11-27T11:18:33.741Z,30.65
2022-11-27T11:21:03.149Z,29.33
2022-11-27T11:23:35.734Z,31.10
2022-11-27T11:26:24.614Z,28.50
2022-11-27T11:28:54.544Z,23.73
2022-11-27T11:31:27.877Z,24.63
2022-11-27T11:34:03.884Z,23.02
2022-11-27T11:36:30.957Z,25.12
2022-11-27T11:38:57.972Z,30.45
2022-11-27T11:41:24.923Z,23.48
2022-11-27T11:43:58.530Z,22.20
2022-11-27T11:46:29.778Z,22.90
2022-11-27T11:49:15.968Z,21.67
2022-11-27T11:52:00.594Z,20.95
2022-11-27T11:54:49.538Z,19.33
2022-11-27T11:57:41.890Z,18.15
2022-11-27T12:00:11.439Z,19.90
2022-11-27T12:03:32.446Z,17.12
2022-11-27T12:06:17.370Z,21.45
2022-11-27T12:09:00.446Z,19.92
2022-11-27T12:11:54.217Z,19.80
2022-11-27T12:14:32.697Z,20.92
2022-11-27T12:17:05.624Z,19.77
2022-11-27T12:22:20.646Z,20.02
2022-11-27T12:25:25.348Z,20.20
2022-11-27T12:28:15.964Z,21.83
2022-11-27T12:30:57.341Z,20.12
2022-11-27T12:33:27.062Z,21.95
2022-11-27T12:36:28.891Z,22.40
2022-11-27T12:39:09.965Z,20.75
2022-11-27T12:41:57.843Z,21.52
2022-11-27T12:44:35.459Z,21.65
2022-11-27T12:47:16.110Z,23.42
2022-11-27T12:49:50.502Z,21.12
2022-11-27T12:52:54.434Z,21.30
2022-11-27T12:55:27.478Z,22.00
2022-11-27T13:00:27.061Z,23.77
2022-11-27T13:03:02.885Z,20.90
2022-11-27T13:05:37.402Z,21.95
2022-11-27T13:08:18.540Z,20.70
2022-11-27T13:10:52.378Z,21.12
2022-11-27T13:13:34.159Z,20.15
2022-11-27T13:16:11.174Z,21.45
2022-11-27T13:18:48.980Z,18.85
2022-11-27T13:21:22.782Z,17.62
2022-11-27T13:23:55.339Z,16.65
2022-11-27T13:26:38.469Z,17.95
2022-11-27T13:29:43.887Z,17.80
2022-11-27T13:32:30.610Z,17.37
2022-11-27T13:35:02.559Z,19.50
2022-11-27T13:37:36.983Z,21.50
2022-11-27T13:40:04.231Z,18.75
2022-11-27T13:42:33.995Z,17.67
2022-11-27T13:45:11.393Z,18.77
2022-11-27T13:47:43.618Z,18.60
2022-11-27T13:50:16.486Z,19.67
2022-11-27T13:53:04.202Z,22.15
2022-11-27T13:55:34.369Z,25.00
2022-11-27T13:58:02.759Z,28.92
2022-11-27T14:00:37.720Z,26.23
2022-11-27T14:03:05.921Z,24.33
2022-11-27T14:05:44.307Z,24.27
2022-11-27T14:08:25.312Z,23.95
2022-11-27T14:11:03.479Z,21.10
2022-11-27T14:13:41.334Z,23.12
2022-11-27T14:16:26.657Z,21.35
2022-11-27T14:18:56.632Z,21.27
2022-11-27T14:21:47.317Z,22.90
2022-11-27T14:24:25.015Z,20.60
2022-11-27T14:26:53.796Z,22.35
2022-11-27T14:29:21.687Z,22.20
2022-11-27T14:31:59.701Z,21.85
2022-11-27T14:34:28.590Z,21.60
2022-11-27T14:36:55.810Z,23.70
2022-11-27T14:39:24.949Z,23.15
2022-11-27T14:41:59.030Z,23.17
2022-11-27T14:44:25.891Z,22.65
2022-11-27T14:46:53.108Z,23.17
2022-11-27T14:49:21.733Z,22.52
2022-11-27T14:51:51.201Z,25.02
2022-11-27T14:54:25.570Z,23.33
2022-11-27T14:56:53.128Z,25.05
2022-11-27T14:59:22.555Z,23.90
2022-11-27T15:02:03.794Z,22.37
2022-11-27T15:04:37.115Z,23.50
2022-11-27T15:07:18.241Z,22.52
2022-11-27T15:09:50.618Z,23.33
2022-11-27T15:12:21.896Z,23.52
2022-11-27T15:15:14.567Z,22.75
2022-11-27T15:17:48.158Z,25.58
2022-11-27T15:20:21.702Z,21.67
2022-11-27T15:22:56.362Z,22.23
2022-11-27T15:25:51.757Z,30.37
2022-11-27T15:28:36.052Z,33.45
2022-11-27T15:31:22.951Z,32.35
2022-11-27T15:33:58.845Z,21.77
2022-11-27T15:36:25.941Z,20.08
2022-11-27T15:38:52.937Z,19.48
2022-11-27T15:41:24.852Z,18.92
2022-11-27T15:43:52.320Z,18.12
2022-11-27T15:46:30.280Z,17.58
2022-11-27T15:48:57.151Z,19.27
2022-11-27T15:51:24.144Z,19.92
2022-11-27T15:53:50.745Z,21.77
2022-11-27T15:56:17.643Z,18.92
2022-11-27T15:58:44.486Z,16.90
2022-11-27T16:01:11.696Z,17.33
2022-11-27T16:03:40.036Z,18.02
2022-11-27T16:06:08.532Z,18.08
2022-11-27T16:08:35.557Z,18.15
2022-11-27T16:11:05.059Z,17.87
2022-11-27T16:13:31.691Z,19.10
2022-11-27T16:16:06.900Z,18.25
2022-11-27T16:18:34.618Z,17.55
2022-11-27T16:21:08.536Z,16.90
2022-11-27T16:23:36.316Z,18.08
2022-11-27T16:26:03.546Z,19.20
2022-11-27T16:28:31.077Z,20.55
2022-11-27T16:31:02.855Z,22.73
2022-11-27T16:33:30.937Z,20.10
2022-11-27T16:36:05.222Z,21.15
2022-11-27T16:38:31.762Z,19.73
2022-11-27T16:41:03.532Z,19.67
2022-11-27T16:43:34.707Z,20.80
2022-11-27T16:46:07.351Z,19.87
2022-11-27T16:48:35.683Z,18.62
2022-11-27T16:51:07.726Z,19.12
2022-11-27T16:53:38.764Z,19.20
2022-11-27T16:56:06.495Z,19.45
2022-11-27T16:58:37.889Z,18.30
2022-11-27T17:01:18.077Z,16.90
2022-11-27T17:03:44.719Z,16.42
2022-11-27T17:06:14.311Z,17.10
2022-11-27T17:08:43.491Z,16.05
2022-11-27T17:11:11.131Z,16.27
2022-11-27T17:13:38.020Z,16.50
2022-11-27T17:16:06.800Z,17.10
2022-11-27T17:18:33.463Z,16.73
2022-11-27T17:21:04.867Z,17.85
2022-11-27T17:23:31.467Z,17.92
2022-11-27T17:25:58.238Z,17.92
2022-11-27T17:28:24.839Z,17.35
2022-11-27T17:30:51.404Z,17.25
2022-11-27T17:33:17.933Z,17.27
2022-11-27T17:35:44.487Z,16.77
2022-11-27T17:38:11.200Z,17.25
2022-11-27T17:40:37.892Z,17.42
2022-11-27T17:43:04.546Z,16.95
2022-11-27T17:45:31.208Z,15.75
2022-11-27T17:48:00.123Z,17.00
2022-11-27T17:50:26.683Z,17.27
2022-11-27T17:52:53.509Z,16.37
2022-11-27T17:55:20.082Z,17.27
2022-11-27T17:57:46.615Z,17.12
2022-11-27T18:00:13.537Z,15.35
2022-11-27T18:02:40.111Z,16.70
2022-11-27T18:05:07.137Z,16.35
2022-11-27T18:07:33.780Z,16.62
2022-11-27T18:10:00.496Z,14.93
2022-11-27T18:12:27.068Z,15.43
2022-11-27T18:14:59.472Z,14.35
2022-11-27T18:17:28.559Z,14.85
2022-11-27T18:19:57.169Z,14.93
2022-11-27T18:22:24.215Z,14.70
2022-11-27T18:24:50.756Z,14.98
2022-11-27T18:27:17.813Z,13.52
2022-11-27T18:29:45.142Z,15.50
2022-11-27T18:32:13.293Z,14.95
2022-11-27T18:34:40.932Z,14.48
2022-11-27T18:37:07.581Z,15.30
2022-11-27T18:39:35.345Z,15.07
2022-11-27T18:42:03.305Z,15.25
2022-11-27T18:44:29.825Z,13.93
2022-11-27T18:46:56.468Z,15.27
2022-11-27T18:49:23.314Z,16.20
2022-11-27T18:51:51.890Z,15.50
2022-11-27T18:54:18.542Z,15.90
2022-11-27T18:56:45.109Z,15.48
2022-11-27T18:59:11.691Z,15.40
2022-11-27T19:01:42.209Z,13.95
2022-11-27T19:04:10.477Z,13.68
2022-11-27T19:06:38.832Z,15.43
2022-11-27T19:09:06.236Z,13.27
2022-11-27T19:11:34.029Z,12.93
2022-11-27T19:14:01.486Z,12.80
2022-11-27T19:16:31.796Z,12.27
2022-11-27T19:18:59.866Z,11.25
2022-11-27T19:21:29.011Z,12.60
2022-11-27T19:23:57.797Z,13.05
2022-11-27T19:26:27.476Z,13.88
2022-11-27T19:28:56.583Z,12.40
2022-11-27T19:31:24.262Z,15.30
2022-11-27T19:33:55.683Z,16.67
2022-11-27T19:36:23.133Z,17.20
2022-11-27T19:39:12.065Z,17.00
2022-11-27T19:41:38.614Z,17.37
2022-11-27T19:44:05.852Z,17.25
2022-11-27T19:46:37.579Z,18.52
2022-11-27T19:54:15.664Z,18.98
2022-11-27T19:56:43.182Z,19.98
2022-11-27T19:59:11.538Z,19.65
2022-11-27T20:01:40.179Z,20.48
2022-11-27T20:08:44.506Z,19.95
2022-11-27T20:13:52.479Z,20.42
2022-11-27T20:16:21.316Z,22.15
2022-11-27T20:18:48.204Z,21.83
2022-11-27T20:21:18.172Z,20.55
2022-11-27T20:48:10.529Z,19.08
2022-11-27T20:50:39.331Z,18.17
2022-11-27T20:53:06.391Z,17.75
2022-11-27T20:55:34.092Z,18.37
2022-11-27T20:58:00.683Z,18.83
2022-11-27T21:00:27.624Z,18.42
2022-11-27T21:02:54.319Z,17.33
2022-11-27T21:05:20.985Z,17.25
2022-11-27T21:07:47.668Z,17.42
2022-11-27T21:10:16.421Z,17.15
2022-11-27T21:12:43.288Z,15.50
2022-11-27T21:17:45.977Z,16.42
2022-11-27T21:20:13.081Z,17.10
2022-11-27T21:22:42.593Z,17.90
2022-11-27T21:25:09.155Z,18.02
2022-11-27T21:27:37.349Z,17.73
2022-11-27T21:30:47.065Z,15.55
2022-11-27T21:33:46.378Z,15.43
2022-11-27T21:36:13.675Z,16.20
2022-11-27T21:39:01.820Z,16.40
2022-11-27T21:41:29.654Z,19.37
2022-11-27T21:44:11.410Z,18.83
2022-11-27T21:46:38.339Z,18.58
2022-11-27T21:49:26.662Z,18.67
2022-11-27T21:51:53.779Z,18.15
2022-11-27T21:54:21.006Z,17.12
2022-11-27T21:56:51.659Z,18.95
2022-11-27T22:03:26.055Z,17.58
2022-11-27T22:06:07.545Z,18.17
2022-11-27T22:08:36.128Z,17.05
2022-11-27T22:11:07.598Z,16.52
2022-11-27T22:13:34.271Z,17.62
2022-11-27T22:16:01.119Z,17.65
2022-11-27T22:18:49.745Z,17.12
2022-11-27T22:21:17.305Z,16.98
2022-11-27T22:23:44.587Z,17.25
2022-11-27T22:26:14.936Z,16.23
2022-11-27T22:32:48.177Z,16.05
2022-11-27T22:35:14.863Z,18.12
2022-11-27T22:37:41.424Z,19.85
2022-11-27T22:40:08.324Z,19.10
2022-11-27T22:42:35.069Z,18.75
2022-11-27T22:45:01.754Z,18.73
2022-11-27T22:50:30.928Z,19.33
2022-11-27T22:52:58.387Z,17.73
2022-11-27T22:55:25.078Z,17.95
2022-11-27T23:19:34.370Z,17.35
2022-11-27T23:22:00.963Z,19.15
2022-11-27T23:24:27.639Z,18.42
2022-11-27T23:26:54.234Z,18.30
2022-11-27T23:29:20.797Z,18.15
2022-11-27T23:31:47.519Z,17.25
2022-11-27T23:34:33.803Z,14.90
2022-11-27T23:37:00.351Z,15.20
2022-11-27T23:39:27.105Z,14.77
2022-11-27T23:41:53.729Z,15.13
2022-11-27T23:48:25.044Z,16.60
2022-11-27T23:50:51.710Z,17.12
